Terminal Aerodrome Forecast
Issued by NWS Goodland, KS

Home | Current Version | Previous Version | Text Only | Print | Product List | Glossary On
Versions: 1 2 3 4 5 6 7 8 9 10 11 12 13 14 15 16 17 18 19 20 21 22 23 24 25 26 27 28
000
FTUS43 KGLD 261129 AAB
TAFGLD
TAF AMD
KGLD 261129Z 2611/2712 06008KT P6SM SCT060
     FM261900 07012G17KT P6SM VCTS BKN060CB
     FM262200 03015G22KT 5SM -TSRA BKN040CB
     FM270400 02015G22KT P6SM VCTS BKN080CB
     FM270800 02010KT P6SM OVC003=

USA.gov is the U.S. government's official web portal to all federal, state and local government web resources and services.